createdAt,value
2023-01-07T00:02:32.154Z,101293.53
2023-01-07T00:07:33.475Z,101287.66
2023-01-07T00:12:34.873Z,101293.41
2023-01-07T00:17:36.262Z,101294.63
2023-01-07T00:22:37.576Z,101282.56
2023-01-07T00:27:38.895Z,101279.47
2023-01-07T00:32:58.920Z,101271.53
2023-01-07T00:38:00.288Z,101278.06
2023-01-07T00:43:01.723Z,101277.16
2023-01-07T00:48:04.231Z,101278.59
2023-01-07T00:53:05.850Z,101273.22
2023-01-07T00:58:07.248Z,101276.13
2023-01-07T01:03:10.298Z,101265.97
2023-01-07T01:08:11.689Z,101260.22
2023-01-07T01:13:15.453Z,101265.47
2023-01-07T01:18:18.108Z,101259.09
2023-01-07T01:23:19.446Z,101247.84
2023-01-07T01:28:20.801Z,101245.59
2023-01-07T01:33:22.108Z,101244.09
2023-01-07T01:38:23.437Z,101251.25
2023-01-07T01:43:32.398Z,101252.00
2023-01-07T01:48:35.668Z,101247.69
2023-01-07T01:53:37.623Z,101248.69
2023-01-07T01:58:41.850Z,101243.34
2023-01-07T02:03:43.476Z,101240.47
2023-01-07T02:08:44.789Z,101239.88
2023-01-07T02:14:01.421Z,101235.75
2023-01-07T02:19:25.274Z,101242.78
2023-01-07T02:24:26.555Z,101226.78
2023-01-07T02:29:33.852Z,101223.06
2023-01-07T02:34:41.385Z,101226.31
2023-01-07T02:39:51.813Z,101227.94
2023-01-07T02:45:22.536Z,101227.28
2023-01-07T02:50:23.835Z,101215.22
2023-01-07T02:55:38.057Z,101214.69
2023-01-07T03:00:45.430Z,101203.91
2023-01-07T03:05:52.771Z,101206.81
2023-01-07T03:10:57.166Z,101200.44
2023-01-07T03:16:02.365Z,101189.16
2023-01-07T03:21:05.886Z,101185.50
2023-01-07T03:26:08.728Z,101179.47
2023-01-07T03:31:12.285Z,101186.16
2023-01-07T03:36:16.964Z,101185.00
2023-01-07T03:41:37.085Z,101177.63
2023-01-07T03:46:38.515Z,101184.88
2023-01-07T03:51:39.879Z,101177.31
2023-01-07T03:56:41.257Z,101177.19
2023-01-07T04:01:42.746Z,101165.19
2023-01-07T04:06:44.171Z,101167.03
2023-01-07T04:11:45.573Z,101170.84
2023-01-07T04:16:47.011Z,101162.69
2023-01-07T04:21:48.359Z,101138.59
2023-01-07T04:26:49.751Z,101144.78
2023-01-07T04:31:51.095Z,101132.28
2023-01-07T04:36:52.414Z,101126.59
2023-01-07T04:41:53.746Z,101124.34
2023-01-07T04:46:55.079Z,101121.38
2023-01-07T04:51:56.417Z,101121.38
2023-01-07T04:56:57.793Z,101117.44
2023-01-07T05:01:59.256Z,101110.41
2023-01-07T05:07:00.678Z,101105.31
2023-01-07T05:12:02.002Z,101099.09
2023-01-07T05:17:03.453Z,101090.66
2023-01-07T05:22:04.788Z,101082.63
2023-01-07T05:27:06.148Z,101082.28
2023-01-07T05:32:07.450Z,101081.47
2023-01-07T05:37:08.826Z,101082.47
2023-01-07T05:42:10.184Z,101080.22
2023-01-07T05:47:11.522Z,101071.41
2023-01-07T05:52:12.879Z,101073.00
2023-01-07T05:57:14.186Z,101061.97
2023-01-07T06:02:15.512Z,101069.78
2023-01-07T06:07:16.902Z,101056.28
2023-01-07T06:12:18.262Z,101052.56
2023-01-07T06:17:19.621Z,101047.56
2023-01-07T06:22:20.949Z,101044.66
2023-01-07T06:27:22.303Z,101027.84
2023-01-07T06:32:23.717Z,101029.69
2023-01-07T06:37:25.029Z,101028.72
2023-01-07T06:42:26.783Z,101015.84
2023-01-07T06:47:28.099Z,101009.19
2023-01-07T06:52:29.418Z,100999.13
2023-01-07T06:57:30.739Z,101005.66
2023-01-07T07:02:32.193Z,100999.03
2023-01-07T07:07:33.695Z,100994.78
2023-01-07T07:12:35.621Z,101000.19
2023-01-07T07:17:37.041Z,100996.59
2023-01-07T07:22:38.410Z,100989.75
2023-01-07T07:27:39.770Z,100979.50
2023-01-07T07:32:41.326Z,100979.13
2023-01-07T07:37:42.717Z,100973.31
2023-01-07T07:43:10.356Z,100962.53
2023-01-07T07:48:06.275Z,100964.50
2023-01-07T07:53:10.111Z,100962.53
2023-01-07T07:58:11.957Z,100950.09
2023-01-07T08:03:13.280Z,100942.63
2023-01-07T08:08:14.903Z,100941.69
2023-01-07T08:13:16.235Z,100938.53
2023-01-07T08:18:19.070Z,100930.50
2023-01-07T08:23:20.386Z,100918.91
2023-01-07T08:28:21.756Z,100915.59
2023-01-07T08:33:23.095Z,100901.03
2023-01-07T08:38:25.389Z,100888.81
2023-01-07T08:43:27.124Z,100892.88
2023-01-07T08:48:28.566Z,100879.00
2023-01-07T08:53:29.922Z,100881.00
2023-01-07T08:58:31.235Z,100872.59
2023-01-07T09:03:32.823Z,100875.22
2023-01-07T09:08:34.147Z,100873.50
2023-01-07T09:13:35.487Z,100863.66
2023-01-07T09:18:36.853Z,100862.13
2023-01-07T09:23:38.314Z,100846.41
2023-01-07T09:28:39.633Z,100852.75
2023-01-07T09:33:40.997Z,100849.81
2023-01-07T09:38:42.441Z,100847.88
2023-01-07T09:44:00.565Z,100849.31
2023-01-07T09:49:03.767Z,100836.34
2023-01-07T09:54:08.728Z,100830.25
2023-01-07T09:59:10.581Z,100821.47
2023-01-07T10:04:30.753Z,100817.28
2023-01-07T10:09:35.276Z,100811.31
2023-01-07T10:14:42.608Z,100804.31
2023-01-07T10:19:53.046Z,100793.72
2023-01-07T10:24:57.438Z,100790.34
2023-01-07T10:30:01.362Z,100783.41
2023-01-07T10:35:03.826Z,100781.38
2023-01-07T10:40:23.661Z,100786.41
2023-01-07T10:45:31.144Z,100774.69
2023-01-07T10:50:51.476Z,100763.81
2023-01-07T10:55:59.030Z,100753.91
2023-01-07T11:01:00.674Z,100736.97
2023-01-07T11:06:07.479Z,100722.72
2023-01-07T11:11:20.172Z,100717.69
2023-01-07T11:16:24.650Z,100716.06
2023-01-07T11:21:44.745Z,100714.63
2023-01-07T11:26:46.522Z,100692.09
2023-01-07T11:31:59.073Z,100683.84
2023-01-07T11:37:00.956Z,100674.38
2023-01-07T11:42:33.017Z,100656.03
2023-01-07T11:47:34.796Z,100651.63
2023-01-07T11:52:36.192Z,100645.38
2023-01-07T11:57:37.536Z,100631.69
2023-01-07T12:02:38.883Z,100617.41
2023-01-07T12:07:44.566Z,100604.09
2023-01-07T12:12:45.910Z,100594.25
2023-01-07T12:17:49.149Z,100585.19
2023-01-07T12:23:13.836Z,100576.75
2023-01-07T12:28:19.520Z,100570.09
2023-01-07T12:33:20.830Z,100563.28
2023-01-07T12:38:25.810Z,100561.06
2023-01-07T12:43:36.644Z,100545.53
2023-01-07T12:48:37.960Z,100544.97
2023-01-07T12:53:44.140Z,100538.31
2023-01-07T12:58:53.085Z,100525.44
2023-01-07T13:03:54.370Z,100524.44
2023-01-07T13:09:07.301Z,100527.06
2023-01-07T13:14:14.582Z,100504.50
2023-01-07T13:19:16.013Z,100511.75
2023-01-07T13:24:55.806Z,100501.47
2023-01-07T13:29:58.514Z,100512.78
2023-01-07T13:35:09.322Z,100508.53
2023-01-07T13:40:10.709Z,100506.53
2023-01-07T13:45:29.060Z,100492.84
2023-01-07T13:50:35.718Z,100489.25
2023-01-07T13:55:38.957Z,100484.41
2023-01-07T14:00:40.291Z,100487.03
2023-01-07T14:05:41.663Z,100492.66
2023-01-07T14:10:51.296Z,100498.69
2023-01-07T14:15:58.833Z,100485.81
2023-01-07T14:21:09.612Z,100473.16
2023-01-07T14:26:34.312Z,100473.34
2023-01-07T14:31:35.970Z,100464.91
2023-01-07T14:36:55.784Z,100463.50
2023-01-07T14:42:15.969Z,100471.34
2023-01-07T14:47:40.543Z,100459.69
2023-01-07T14:53:00.639Z,100458.25
2023-01-07T14:58:17.469Z,100459.69
2023-01-07T15:03:25.006Z,100458.03
2023-01-07T15:08:47.524Z,100448.59
2023-01-07T15:14:23.052Z,100437.34
2023-01-07T15:19:24.843Z,100436.16
2023-01-07T15:24:35.087Z,100433.28
2023-01-07T15:29:53.377Z,100430.47
2023-01-07T15:34:54.697Z,100423.19
2023-01-07T15:39:56.832Z,100419.38
2023-01-07T15:44:59.363Z,100400.47
2023-01-07T15:50:19.654Z,100407.06
2023-01-07T15:55:29.384Z,100395.34
2023-01-07T16:00:31.447Z,100389.53
2023-01-07T16:05:32.874Z,100389.28
2023-01-07T16:10:35.689Z,100387.69
2023-01-07T16:15:37.800Z,100380.09
2023-01-07T16:20:49.810Z,100370.22
2023-01-07T16:25:54.008Z,100360.72
2023-01-07T16:30:56.032Z,100351.66
2023-01-07T16:35:58.826Z,100343.44
2023-01-07T16:41:00.270Z,100343.53
2023-01-07T16:46:20.254Z,100342.38
2023-01-07T16:51:54.177Z,100343.38
2023-01-07T16:57:05.819Z,100344.91
2023-01-07T17:02:27.424Z,100341.13
2023-01-07T17:07:28.908Z,100340.31
2023-01-07T17:12:36.259Z,100332.25
2023-01-07T17:17:37.655Z,100333.25
2023-01-07T17:22:39.650Z,100316.44
2023-01-07T17:27:50.554Z,100325.69
2023-01-07T17:32:52.988Z,100317.66
2023-01-07T17:37:54.689Z,100325.69
2023-01-07T17:43:14.615Z,100313.47
2023-01-07T17:48:15.899Z,100305.47
2023-01-07T17:53:22.101Z,100312.88
2023-01-07T17:58:31.038Z,100301.03
2023-01-07T18:03:32.536Z,100295.81
2023-01-07T18:08:33.856Z,100291.41
2023-01-07T18:13:35.265Z,100291.81
2023-01-07T18:18:36.586Z,100283.41
2023-01-07T18:23:38.595Z,100287.81
2023-01-07T18:28:40.549Z,100278.56
2023-01-07T18:33:42.295Z,100271.53
2023-01-07T18:38:43.608Z,100255.72
2023-01-07T18:43:44.980Z,100234.06
2023-01-07T18:48:46.303Z,100241.47
2023-01-07T18:53:47.619Z,100255.94
2023-01-07T18:58:52.493Z,100281.41
2023-01-07T19:03:53.944Z,100278.78
2023-01-07T19:08:56.418Z,100270.94
2023-01-07T19:13:57.800Z,100248.69
2023-01-07T19:18:59.140Z,100263.13
2023-01-07T19:24:03.648Z,100249.69
2023-01-07T19:29:05.025Z,100254.94
2023-01-07T19:34:06.515Z,100257.78
2023-01-07T19:39:07.844Z,100272.84
2023-01-07T19:44:09.631Z,100263.03
2023-01-07T19:49:11.783Z,100261.81
2023-01-07T19:54:16.676Z,100266.03
2023-01-07T19:59:18.003Z,100261.59
2023-01-07T20:04:19.359Z,100273.22
2023-01-07T20:09:21.039Z,100272.25
2023-01-07T20:14:22.351Z,100278.47
2023-01-07T20:19:24.060Z,100264.84
2023-01-07T20:24:25.501Z,100261.03
2023-01-07T20:29:26.882Z,100260.03
2023-01-07T20:34:28.198Z,100257.84
2023-01-07T20:39:29.529Z,100251.81
2023-01-07T20:44:30.855Z,100258.69
2023-01-07T20:49:32.158Z,100251.63
2023-01-07T20:54:33.479Z,100248.00
2023-01-07T20:59:34.802Z,100239.94
2023-01-07T21:04:36.717Z,100237.53
2023-01-07T21:09:38.063Z,100239.50
2023-01-07T21:14:39.378Z,100222.81
2023-01-07T21:19:40.704Z,100217.00
2023-01-07T21:24:41.996Z,100226.63
2023-01-07T21:29:43.428Z,100211.38
2023-01-07T21:34:44.778Z,100198.91
2023-01-07T21:39:46.157Z,100210.38
2023-01-07T21:44:47.778Z,100229.06
2023-01-07T21:49:53.187Z,100216.78
2023-01-07T21:54:56.068Z,100231.50
2023-01-07T21:59:57.391Z,100206.56
2023-01-07T22:04:58.711Z,100197.91
2023-01-07T22:10:00.004Z,100177.63
2023-01-07T22:15:01.395Z,100179.84
2023-01-07T22:20:02.824Z,100191.09
2023-01-07T22:25:04.320Z,100195.91
2023-01-07T22:30:06.562Z,100199.75
2023-01-07T22:35:08.097Z,100194.16
2023-01-07T22:40:09.762Z,100208.97
2023-01-07T22:45:14.921Z,100192.72
2023-01-07T22:50:17.136Z,100181.66
2023-01-07T22:55:18.957Z,100181.09
2023-01-07T23:00:52.702Z,100183.88
2023-01-07T23:05:54.030Z,100175.66
2023-01-07T23:10:55.366Z,100153.94
2023-01-07T23:15:59.807Z,100147.53
2023-01-07T23:21:03.664Z,100156.38
2023-01-07T23:26:05.073Z,100138.50
2023-01-07T23:31:06.379Z,100133.91
2023-01-07T23:36:09.061Z,100114.03
2023-01-07T23:41:11.406Z,100111.81
2023-01-07T23:46:12.817Z,100110.63
2023-01-07T23:51:18.566Z,100100.59
2023-01-07T23:56:20.635Z,100105.00
